Prairie Ridge, Washington
Current Conditions -  °F | °C
As of 4:15 AM on Thursday 29 Jan 2015 (Local Time) from KPLU Reporting Station
Drizzle Drizzle  
Wind Chill: 41°   Ceiling: 300
Heat Index: 41°   Visibility: 1.7mi
Dew Point: 41°   Wind: 0mph
Humidity: 100%   Direction: NA
Pressure: 30.34"   Gusts: NA
Location:  47.1874°N, 122.164°W
Report Text: KPLU 291215Z AUTO 00000KT 1 3/4SM -DZ OVC003 05/05 A3034 RMK AO2
Loading
Personal Weather Stations






























Interactive Weather Map New forecast layout! Learn more

10-Day Weather Forecast

Advertisements
Track Severe Weather on mobile